Harbine, Nebraska
Current Conditions -  °F | °C
As of 5:55 PM on Friday 28 Nov 2014 (Local Time) from KBIE Reporting Station
Clear Clear  
Wind Chill: 53°   Ceiling: Unl
Heat Index: 53°   Visibility: 10mi
Dew Point: 33°   Wind: 10mph
Humidity: 46%   Direction: 190°S
Pressure: 29.69"   Gusts: NA
Location:  40.219°N, 97.0292°W
Report Text: KBIE 282355Z AUTO 19009KT 10SM CLR 12/00 A2969 RMK AO2 T01170003 10157 20106
Loading
Personal Weather Stations






























Interactive Weather Map New forecast layout! Learn more

10-Day Weather Forecast

Advertisements
Track Severe Weather on mobile